createdAt,value
2018-09-06T00:00:12.929Z,101032.66
2018-09-06T00:02:45.759Z,101035.92
2018-09-06T00:05:14.743Z,101027.71
2018-09-06T00:07:43.631Z,101027.94
2018-09-06T00:10:14.577Z,101023.90
2018-09-06T00:12:43.467Z,101029.14
2018-09-06T00:15:12.357Z,101028.34
2018-09-06T00:17:49.320Z,101025.27
2018-09-06T00:20:18.176Z,101023.87
2018-09-06T00:22:49.097Z,101023.11
2018-09-06T00:25:21.897Z,101016.80
2018-09-06T00:27:50.822Z,101015.75
2018-09-06T00:30:44.147Z,101014.40
2018-09-06T00:33:13.033Z,101008.15
2018-09-06T00:35:41.928Z,101003.48
2018-09-06T00:38:11.004Z,100999.14
2018-09-06T00:40:39.911Z,100999.41
2018-09-06T00:43:32.444Z,100995.34
2018-09-06T00:46:01.332Z,100989.63
2018-09-06T00:48:30.346Z,100992.66
2018-09-06T00:50:59.251Z,100989.64
2018-09-06T00:53:28.241Z,100981.73
2018-09-06T00:55:57.163Z,100975.72
2018-09-06T00:58:26.024Z,100970.78
2018-09-06T01:00:54.972Z,100972.79
2018-09-06T01:03:23.883Z,100962.73
2018-09-06T01:05:52.815Z,100962.17
2018-09-06T01:08:22.014Z,100959.94
2018-09-06T01:11:02.292Z,100961.11
2018-09-06T01:13:31.180Z,100956.18
2018-09-06T01:16:07.112Z,100947.93
2018-09-06T01:18:36.154Z,100949.30
2018-09-06T01:21:05.061Z,100941.66
2018-09-06T01:23:33.990Z,100943.00
2018-09-06T01:26:02.930Z,100939.22
2018-09-06T01:28:31.834Z,100938.44
2018-09-06T01:31:01.116Z,100943.87
2018-09-06T01:33:29.986Z,100941.38
2018-09-06T01:36:04.130Z,100941.87
2018-09-06T01:38:33.026Z,100942.73
2018-09-06T01:41:03.091Z,100943.27
2018-09-06T01:43:31.965Z,100942.73
2018-09-06T01:46:00.849Z,100940.55
2018-09-06T01:48:29.716Z,100932.05
2018-09-06T01:50:58.688Z,100933.66
2018-09-06T01:53:28.154Z,100927.68
2018-09-06T01:55:57.542Z,100919.18
2018-09-06T02:01:22.004Z,100921.44
2018-09-06T02:03:51.176Z,100918.76
2018-09-06T02:06:22.057Z,100918.56
2018-09-06T02:08:50.952Z,100919.44
2018-09-06T02:17:15.206Z,100944.66
2018-09-06T02:19:44.118Z,100957.18
2018-09-06T02:22:13.060Z,100965.17
2018-09-06T02:27:41.802Z,100971.11
2018-09-06T02:30:10.689Z,100972.50
2018-09-06T02:32:39.562Z,100976.32
2018-09-06T02:35:08.477Z,100981.85
2018-09-06T02:37:37.755Z,100991.95
2018-09-06T02:40:07.449Z,100995.52
2018-09-06T02:42:36.337Z,100999.87
2018-09-06T02:45:05.331Z,101001.76
2018-09-06T02:47:50.070Z,101005.66
2018-09-06T02:50:24.409Z,101002.89
2018-09-06T02:52:57.350Z,101001.11
2018-09-06T02:55:28.719Z,101001.70
2018-09-06T02:57:58.307Z,100999.25
2018-09-06T03:00:31.902Z,100994.34
2018-09-06T03:03:00.964Z,100980.97
2018-09-06T03:05:37.576Z,100977.66
2018-09-06T03:08:06.457Z,100983.75
2018-09-06T03:10:38.960Z,100976.92
2018-09-06T03:13:07.885Z,100975.53
2018-09-06T03:15:46.663Z,100967.59
2018-09-06T03:18:15.545Z,100956.39
2018-09-06T03:20:44.601Z,100952.59
2018-09-06T03:23:19.140Z,100944.43
2018-09-06T03:25:48.147Z,100939.78
2018-09-06T03:28:17.061Z,100938.70
2018-09-06T03:30:49.846Z,100935.98
2018-09-06T03:33:18.776Z,100933.75
2018-09-06T03:36:09.288Z,100925.88
2018-09-06T03:38:38.195Z,100933.27
2018-09-06T03:41:14.055Z,100929.47
2018-09-06T03:43:50.325Z,100934.36
2018-09-06T03:49:25.764Z,100943.91
2018-09-06T03:51:54.788Z,100943.63
2018-09-06T03:54:27.557Z,100942.02
2018-09-06T03:57:07.964Z,100944.23
2018-09-06T03:59:50.294Z,100943.95
2018-09-06T04:02:22.694Z,100947.25
2018-09-06T04:07:55.400Z,100937.41
2018-09-06T04:10:24.388Z,100939.06
2018-09-06T04:13:09.728Z,100934.95
2018-09-06T04:15:38.642Z,100933.05
2018-09-06T04:18:15.851Z,100938.25
2018-09-06T04:20:51.631Z,100942.91
2018-09-06T04:23:25.046Z,100948.89
2018-09-06T04:25:54.018Z,100953.26
2018-09-06T04:28:26.762Z,100943.70
2018-09-06T04:30:55.644Z,100944.25
2018-09-06T04:33:28.343Z,100941.78
2018-09-06T04:35:59.356Z,100943.16
2018-09-06T04:38:28.301Z,100942.63
2018-09-06T04:41:09.929Z,100944.52
2018-09-06T04:43:45.437Z,100948.37
2018-09-06T04:46:14.268Z,100952.45
2018-09-06T04:48:43.264Z,100950.53
2018-09-06T04:51:12.182Z,100959.52
2018-09-06T04:53:41.161Z,100955.44
2018-09-06T04:56:20.763Z,100956.27
2018-09-06T04:58:49.737Z,100967.71
2018-09-06T05:01:32.001Z,100963.09
2018-09-06T05:04:07.259Z,100964.17
2018-09-06T05:06:42.807Z,100958.44
2018-09-06T05:09:17.205Z,100966.63
2018-09-06T05:11:50.025Z,100960.08
2018-09-06T05:14:23.245Z,100965.82
2018-09-06T05:16:56.008Z,100973.44
2018-09-06T05:19:48.615Z,100972.08
2018-09-06T05:22:18.600Z,100971.80
2018-09-06T05:24:51.007Z,100975.64
2018-09-06T05:27:43.050Z,100974.52
2018-09-06T05:30:25.602Z,100977.81
2018-09-06T05:33:04.929Z,100972.07
2018-09-06T05:35:38.070Z,100971.55
2018-09-06T05:38:09.915Z,100973.72
2018-09-06T05:40:42.133Z,100970.19
2018-09-06T05:43:11.135Z,100961.17
2018-09-06T05:48:35.769Z,100945.36
2018-09-06T05:51:04.755Z,100952.14
2018-09-06T05:53:33.765Z,100945.08
2018-09-06T05:56:15.564Z,100949.45
2018-09-06T05:58:56.481Z,100944.23
2018-09-06T06:01:25.412Z,100940.66
2018-09-06T06:03:54.277Z,100931.96
2018-09-06T06:06:23.224Z,100931.69
2018-09-06T06:08:52.817Z,100933.33
2018-09-06T06:11:21.976Z,100933.33
2018-09-06T06:13:50.887Z,100930.84
2018-09-06T06:16:23.352Z,100920.50
2018-09-06T06:19:11.441Z,100916.69
2018-09-06T06:21:40.345Z,100918.86
2018-09-06T06:24:09.236Z,100919.94
2018-09-06T06:29:39.430Z,100901.97
2018-09-06T06:32:08.415Z,100896.23
2018-09-06T06:34:43.340Z,100896.23
2018-09-06T06:37:12.299Z,100897.04
2018-09-06T06:39:41.255Z,100897.87
2018-09-06T06:42:10.153Z,100891.06
2018-09-06T06:44:39.081Z,100888.86
2018-09-06T06:47:08.098Z,100878.52
2018-09-06T06:49:37.104Z,100879.59
2018-09-06T06:52:06.263Z,100874.95
2018-09-06T06:54:36.170Z,100869.25
2018-09-06T06:57:05.099Z,100867.05
2018-09-06T06:59:34.050Z,100863.80
2018-09-06T07:02:10.748Z,100863.80
2018-09-06T07:04:39.941Z,100876.88
2018-09-06T07:07:08.818Z,100880.16
2018-09-06T07:09:37.803Z,100880.68
2018-09-06T07:12:06.891Z,100889.95
2018-09-06T07:14:35.851Z,100890.78
2018-09-06T07:17:04.772Z,100894.31
2018-09-06T07:19:50.573Z,100891.87
2018-09-06T07:22:36.125Z,100893.23
2018-09-06T07:25:05.111Z,100895.40
2018-09-06T07:27:34.041Z,100895.98
2018-09-06T07:30:03.001Z,100895.19
2018-09-06T07:32:31.852Z,100894.06
2018-09-06T07:35:00.741Z,100897.34
2018-09-06T07:37:35.337Z,100888.36
2018-09-06T07:40:28.592Z,100893.55
2018-09-06T07:43:03.344Z,100888.61
2018-09-06T07:45:32.237Z,100891.61
2018-09-06T07:48:19.925Z,100898.16
2018-09-06T07:50:48.818Z,100896.80
2018-09-06T07:53:17.712Z,100903.09
2018-09-06T07:55:55.111Z,100898.69
2018-09-06T07:58:24.012Z,100904.45
2018-09-06T08:00:52.874Z,100898.72
2018-09-06T08:03:27.501Z,100902.80
2018-09-06T08:06:01.983Z,100906.89
2018-09-06T08:08:31.118Z,100899.80
2018-09-06T08:11:04.133Z,100912.63
2018-09-06T08:13:34.097Z,100910.98
2018-09-06T08:16:09.444Z,100909.06
2018-09-06T08:18:46.104Z,100913.98
2018-09-06T08:21:16.002Z,100922.45
2018-09-06T08:23:44.926Z,100922.17
2018-09-06T08:26:13.961Z,100919.16
2018-09-06T08:28:42.858Z,100921.09
2018-09-06T08:31:17.833Z,100921.61
2018-09-06T08:33:46.727Z,100921.61
2018-09-06T08:36:15.887Z,100924.06
2018-09-06T08:38:48.707Z,100924.90
2018-09-06T08:41:31.889Z,100924.63
2018-09-06T08:44:04.897Z,100922.17
2018-09-06T08:46:33.891Z,100923.81
2018-09-06T08:49:09.029Z,100923.53
2018-09-06T08:51:39.975Z,100921.62
2018-09-06T08:54:10.886Z,100916.72
2018-09-06T08:56:39.804Z,100924.06
2018-09-06T08:59:08.717Z,100920.52
2018-09-06T09:01:40.096Z,100915.88
2018-09-06T09:04:12.898Z,100911.53
2018-09-06T09:06:42.845Z,100910.97
2018-09-06T09:09:13.674Z,100910.69
2018-09-06T09:11:42.592Z,100905.80
2018-09-06T09:14:11.541Z,100912.91
2018-09-06T09:16:40.473Z,100908.25
2018-09-06T09:19:09.612Z,100914.26
2018-09-06T09:21:39.723Z,100913.98
2018-09-06T09:24:12.386Z,100910.98
2018-09-06T09:26:48.627Z,100913.70
2018-09-06T09:29:21.028Z,100913.98
2018-09-06T09:32:10.727Z,100909.60
2018-09-06T09:34:49.900Z,100905.78
2018-09-06T09:37:29.027Z,100898.40
2018-09-06T09:39:57.909Z,100902.50
2018-09-06T09:42:26.986Z,100905.50
2018-09-06T09:44:55.909Z,100904.94
2018-09-06T09:49:52.883Z,100899.48
2018-09-06T09:52:22.274Z,100900.61
2018-09-06T09:54:51.317Z,100905.52
2018-09-06T09:57:21.261Z,100904.95
2018-09-06T09:59:52.217Z,100896.25
2018-09-06T10:02:28.675Z,100896.52
2018-09-06T10:05:07.490Z,100899.25
2018-09-06T10:07:53.688Z,100893.51
2018-09-06T10:10:30.782Z,100896.77
2018-09-06T10:16:01.553Z,100898.13
2018-09-06T10:18:40.409Z,100897.87
2018-09-06T10:21:12.635Z,100897.60
2018-09-06T10:23:41.829Z,100890.22
2018-09-06T10:26:11.774Z,100889.42
2018-09-06T10:29:03.442Z,100890.50
2018-09-06T10:31:37.089Z,100885.61
2018-09-06T10:34:07.152Z,100889.14
2018-09-06T10:36:36.059Z,100883.69
2018-09-06T10:39:07.363Z,100880.39
2018-09-06T10:41:36.332Z,100876.05
2018-09-06T10:44:05.320Z,100874.42
2018-09-06T10:46:34.227Z,100882.05
2018-09-06T10:49:23.551Z,100878.80
2018-09-06T11:00:32.869Z,100885.33
2018-09-06T11:03:08.809Z,100884.78
2018-09-06T11:05:38.002Z,100875.50
2018-09-06T11:08:06.926Z,100875.23
2018-09-06T11:10:35.815Z,100875.78
2018-09-06T11:13:08.476Z,100874.70
2018-09-06T11:15:37.387Z,100871.13
2018-09-06T11:18:07.492Z,100864.84
2018-09-06T11:20:36.335Z,100862.40
2018-09-06T11:23:05.271Z,100867.86
2018-09-06T11:25:44.599Z,100860.45
2018-09-06T11:28:30.707Z,100858.55
2018-09-06T11:30:59.876Z,100863.47
2018-09-06T11:33:32.407Z,100862.09
2018-09-06T11:36:01.330Z,100867.27
2018-09-06T11:38:31.274Z,100864.83
2018-09-06T11:41:05.901Z,100862.64
2018-09-06T11:46:32.276Z,100867.25
2018-09-06T11:49:01.269Z,100867.27
2018-09-06T11:51:32.304Z,100876.53
2018-09-06T11:54:02.392Z,100866.16
2018-09-06T11:56:38.186Z,100867.52
2018-09-06T11:59:31.430Z,100869.99
2018-09-06T12:02:00.421Z,100870.27
2018-09-06T12:04:31.428Z,100867.27
2018-09-06T12:07:00.344Z,100869.44
2018-09-06T12:09:29.378Z,100868.64
2018-09-06T12:11:58.261Z,100865.34
2018-09-06T12:14:27.153Z,100864.81
2018-09-06T12:17:15.233Z,100856.89
2018-09-06T12:19:44.151Z,100850.84
2018-09-06T12:22:14.085Z,100853.29
2018-09-06T12:24:43.283Z,100852.19
2018-09-06T12:27:12.679Z,100844.82
2018-09-06T12:29:45.671Z,100845.06
2018-09-06T12:32:14.595Z,100846.72
2018-09-06T12:34:43.657Z,100843.98
2018-09-06T12:37:13.830Z,100845.03
2018-09-06T12:39:44.011Z,100839.84
2018-09-06T12:42:14.082Z,100844.52
2018-09-06T12:44:43.274Z,100834.05
2018-09-06T12:47:12.311Z,100831.56
2018-09-06T12:49:42.471Z,100832.41
2018-09-06T12:55:14.598Z,100815.38
2018-09-06T12:57:48.134Z,100809.08
2018-09-06T13:00:17.069Z,100813.69
2018-09-06T13:02:45.982Z,100816.48
2018-09-06T13:05:14.897Z,100812.14
2018-09-06T13:07:56.662Z,100815.97
2018-09-06T13:10:25.551Z,100803.13
2018-09-06T13:12:54.465Z,100801.41
2018-09-06T13:15:26.556Z,100802.75
2018-09-06T13:17:55.508Z,100803.97
2018-09-06T13:20:24.414Z,100798.48
2018-09-06T13:23:05.639Z,100797.13
2018-09-06T13:25:34.634Z,100790.64
2018-09-06T13:28:03.571Z,100792.42
2018-09-06T13:30:32.568Z,100796.97
2018-09-06T13:33:01.564Z,100793.13
2018-09-06T13:35:30.618Z,100793.13
2018-09-06T13:38:05.051Z,100789.33
2018-09-06T13:40:44.919Z,100777.27
2018-09-06T13:43:30.801Z,100779.69
2018-09-06T13:48:52.845Z,100776.58
2018-09-06T13:51:21.880Z,100774.61
2018-09-06T13:53:54.113Z,100770.27
2018-09-06T13:56:26.154Z,100773.37
2018-09-06T13:58:59.802Z,100764.79
2018-09-06T14:01:29.870Z,100770.50
2018-09-06T14:04:00.000Z,100766.62
2018-09-06T14:06:30.980Z,100767.96
2018-09-06T14:09:01.976Z,100765.28
2018-09-06T14:11:30.887Z,100765.46
2018-09-06T14:13:59.929Z,100762.86
2018-09-06T14:16:32.413Z,100753.63
2018-09-06T14:19:01.381Z,100755.67
2018-09-06T14:21:30.379Z,100751.38
2018-09-06T14:23:59.391Z,100751.72
2018-09-06T14:26:34.175Z,100754.02
2018-09-06T14:29:07.180Z,100750.53
2018-09-06T14:31:42.096Z,100753.02
2018-09-06T14:34:12.001Z,100752.81
2018-09-06T14:36:46.869Z,100745.98
2018-09-06T14:39:19.148Z,100750.39
2018-09-06T14:41:55.553Z,100746.34
2018-09-06T14:44:26.712Z,100751.76
2018-09-06T14:46:59.642Z,100746.51
2018-09-06T14:49:29.514Z,100743.58
2018-09-06T14:51:59.458Z,100739.23
2018-09-06T14:54:29.408Z,100736.83
2018-09-06T14:56:58.628Z,100731.32
2018-09-06T14:59:27.847Z,100736.22
2018-09-06T15:01:56.762Z,100731.87
2018-09-06T15:04:27.736Z,100723.47
2018-09-06T15:07:01.432Z,100724.02
2018-09-06T15:09:30.415Z,100719.09
2018-09-06T15:12:00.450Z,100720.48
2018-09-06T15:14:33.112Z,100721.83
2018-09-06T15:17:04.435Z,100722.56
2018-09-06T15:19:34.791Z,100720.56
2018-09-06T15:22:04.215Z,100718.64
2018-09-06T15:24:35.503Z,100722.69
2018-09-06T15:27:05.228Z,100722.98
2018-09-06T15:29:35.567Z,100716.95
2018-09-06T15:32:18.279Z,100714.56
2018-09-06T15:34:47.315Z,100707.34
2018-09-06T15:37:22.096Z,100707.43
2018-09-06T15:39:53.053Z,100697.02
2018-09-06T15:42:22.044Z,100690.95
2018-09-06T15:44:54.973Z,100702.98
2018-09-06T15:47:36.443Z,100693.70
2018-09-06T15:50:08.938Z,100686.34
2018-09-06T15:52:38.008Z,100687.41
2018-09-06T15:55:07.383Z,100680.92
2018-09-06T15:57:39.085Z,100673.30
2018-09-06T16:00:08.476Z,100667.61
2018-09-06T16:02:37.577Z,100664.92
2018-09-06T16:05:06.561Z,100669.08
2018-09-06T16:07:35.569Z,100670.40
2018-09-06T16:10:04.530Z,100675.55
2018-09-06T16:12:35.952Z,100683.20
2018-09-06T16:15:07.041Z,100690.53
2018-09-06T16:17:41.081Z,100703.89
2018-09-06T16:20:18.397Z,100702.44
2018-09-06T16:22:47.433Z,100695.63
2018-09-06T16:25:22.500Z,100693.22
2018-09-06T16:27:57.186Z,100689.92
2018-09-06T16:30:29.614Z,100691.84
2018-09-06T16:32:58.707Z,100700.33
2018-09-06T16:35:28.848Z,100704.66
2018-09-06T16:38:02.074Z,100707.68
2018-09-06T16:40:31.099Z,100704.13
2018-09-06T16:43:08.576Z,100704.45
2018-09-06T16:45:40.705Z,100711.84
2018-09-06T16:48:14.618Z,100707.49
2018-09-06T16:50:48.764Z,100715.95
2018-09-06T16:53:17.719Z,100712.39
2018-09-06T16:55:49.757Z,100717.61
2018-09-06T16:58:22.899Z,100713.85
2018-09-06T17:00:53.993Z,100720.19
2018-09-06T17:03:23.055Z,100724.57
2018-09-06T17:05:53.566Z,100721.01
2018-09-06T17:08:22.575Z,100726.76
2018-09-06T17:10:51.699Z,100725.95
2018-09-06T17:13:26.076Z,100730.02
2018-09-06T17:15:59.336Z,100731.13
2018-09-06T17:18:29.268Z,100739.34
2018-09-06T17:21:03.411Z,100745.91
2018-09-06T17:23:33.422Z,100747.29
2018-09-06T17:26:05.974Z,100750.03
2018-09-06T17:28:34.936Z,100747.02
2018-09-06T17:31:05.332Z,100749.22
2018-09-06T17:33:41.005Z,100744.53
2018-09-06T17:36:30.405Z,100758.22
2018-09-06T17:38:59.860Z,100754.41
2018-09-06T17:41:29.181Z,100755.22
2018-09-06T17:43:58.707Z,100759.03
2018-09-06T17:46:29.311Z,100756.57
2018-09-06T17:49:00.865Z,100766.13
2018-09-06T17:51:34.501Z,100764.79
2018-09-06T17:54:06.269Z,100766.47
2018-09-06T17:56:40.353Z,100767.58
2018-09-06T17:59:09.690Z,100767.90
2018-09-06T18:01:42.320Z,100774.70
2018-09-06T18:04:13.668Z,100771.72
2018-09-06T18:06:43.071Z,100771.17
2018-09-06T18:09:18.165Z,100770.62
2018-09-06T18:11:47.728Z,100769.28
2018-09-06T18:14:17.206Z,100778.02
2018-09-06T18:16:46.234Z,100777.19
2018-09-06T18:19:19.443Z,100777.81
2018-09-06T18:21:59.153Z,100780.52
2018-09-06T18:24:29.142Z,100785.16
2018-09-06T18:26:58.113Z,100785.19
2018-09-06T18:29:27.967Z,100783.58
2018-09-06T18:31:58.130Z,100783.59
2018-09-06T18:34:27.611Z,100783.88
2018-09-06T18:36:57.385Z,100788.53
2018-09-06T18:39:26.359Z,100793.41
2018-09-06T18:41:55.307Z,100796.69
2018-09-06T18:44:24.343Z,100798.58
2018-09-06T18:46:56.452Z,100795.60
2018-09-06T18:49:26.388Z,100787.16
2018-09-06T18:51:56.312Z,100792.91
2018-09-06T18:54:25.334Z,100790.98
2018-09-06T18:56:57.644Z,100793.43
2018-09-06T18:59:34.373Z,100795.64
2018-09-06T19:02:04.390Z,100792.08
2018-09-06T19:04:33.668Z,100798.09
2018-09-06T19:07:05.007Z,100802.45
2018-09-06T19:09:34.587Z,100815.25
2018-09-06T19:12:03.873Z,100813.90
2018-09-06T19:14:38.104Z,100805.44
2018-09-06T19:17:09.428Z,100810.89
2018-09-06T19:19:38.520Z,100812.24
2018-09-06T19:22:12.146Z,100810.88
2018-09-06T19:27:34.331Z,100807.35
2018-09-06T19:30:05.296Z,100815.81
2018-09-06T19:32:36.300Z,100817.42
2018-09-06T19:35:28.296Z,100816.90
2018-09-06T19:38:14.930Z,100817.98
2018-09-06T19:41:01.740Z,100824.52
2018-09-06T19:43:32.674Z,100834.34
2018-09-06T19:46:01.723Z,100841.43
2018-09-06T19:48:33.755Z,100841.16
2018-09-06T19:51:02.952Z,100839.23
2018-09-06T19:53:35.515Z,100843.59
2018-09-06T19:56:06.796Z,100841.43
2018-09-06T19:58:39.075Z,100836.50
2018-09-06T20:01:10.079Z,100835.70
2018-09-06T20:03:39.104Z,100841.69
2018-09-06T20:06:13.113Z,100832.41
2018-09-06T20:08:44.087Z,100839.22
2018-09-06T20:11:20.030Z,100838.14
2018-09-06T20:13:49.144Z,100835.41
2018-09-06T20:16:18.220Z,100833.77
2018-09-06T20:18:53.792Z,100837.86
2018-09-06T20:21:28.145Z,100840.06
2018-09-06T20:23:57.167Z,100841.42
2018-09-06T20:26:38.465Z,100844.14
2018-09-06T20:29:07.634Z,100843.05
2018-09-06T20:31:42.159Z,100847.38
2018-09-06T20:34:14.386Z,100846.02
2018-09-06T20:36:57.970Z,100846.86
2018-09-06T20:39:47.069Z,100845.50
2018-09-06T20:42:19.846Z,100853.66
2018-09-06T20:44:48.766Z,100852.30
2018-09-06T20:47:17.810Z,100854.46
2018-09-06T20:49:57.329Z,100858.00
2018-09-06T20:52:29.661Z,100862.91
2018-09-06T20:55:00.833Z,100860.19
2018-09-06T20:57:41.757Z,100862.62
2018-09-06T21:00:15.001Z,100864.55
2018-09-06T21:02:59.588Z,100865.88
2018-09-06T21:05:38.118Z,100862.34
2018-09-06T21:08:12.236Z,100861.26
2018-09-06T21:10:50.834Z,100864.53
2018-09-06T21:13:20.702Z,100862.34
2018-09-06T21:15:49.842Z,100864.25
2018-09-06T21:18:25.755Z,100860.14
2018-09-06T21:20:56.945Z,100864.50
2018-09-06T21:23:26.065Z,100865.31
2018-09-06T21:28:50.225Z,100867.19
2018-09-06T21:31:19.275Z,100871.03
2018-09-06T21:33:48.292Z,100865.86
2018-09-06T21:36:21.487Z,100870.70
2018-09-06T21:39:00.668Z,100870.41
2018-09-06T21:41:43.204Z,100875.58
2018-09-06T21:44:19.390Z,100879.96
2018-09-06T21:46:48.525Z,100882.67
2018-09-06T21:49:17.496Z,100879.14
2018-09-06T21:52:06.821Z,100875.03
2018-09-06T21:54:46.146Z,100868.76
2018-09-06T21:57:21.016Z,100871.27
2018-09-06T21:59:51.922Z,100867.67
2018-09-06T22:02:26.240Z,100872.05
2018-09-06T22:04:56.206Z,100875.03
2018-09-06T22:07:34.756Z,100872.05
2018-09-06T22:10:08.279Z,100870.95
2018-09-06T22:12:39.463Z,100869.88
2018-09-06T22:15:14.568Z,100869.57
2018-09-06T22:17:43.485Z,100869.29
2018-09-06T22:20:17.263Z,100876.67
2018-09-06T22:22:57.376Z,100874.48
2018-09-06T22:25:26.590Z,100867.66
2018-09-06T22:27:55.482Z,100864.14
2018-09-06T22:30:35.800Z,100866.86
2018-09-06T22:33:05.030Z,100868.72
2018-09-06T22:35:34.265Z,100855.65
2018-09-06T22:38:09.359Z,100861.94
2018-09-06T22:40:50.431Z,100857.03
2018-09-06T22:43:23.302Z,100860.05
2018-09-06T22:45:52.265Z,100857.03
2018-09-06T22:48:21.266Z,100857.81
2018-09-06T22:51:02.850Z,100854.02
2018-09-06T22:53:32.841Z,100853.73
2018-09-06T22:56:05.679Z,100851.88
2018-09-06T22:58:34.530Z,100854.89
2018-09-06T23:01:03.424Z,100851.33
2018-09-06T23:03:38.041Z,100854.84
2018-09-06T23:06:07.154Z,100850.20
2018-09-06T23:08:36.217Z,100850.50
2018-09-06T23:11:05.156Z,100851.60
2018-09-06T23:13:34.076Z,100842.88
2018-09-06T23:16:02.976Z,100832.00
2018-09-06T23:18:32.040Z,100834.73
2018-09-06T23:21:01.088Z,100829.81
2018-09-06T23:23:30.068Z,100830.89
2018-09-06T23:26:04.645Z,100827.86
2018-09-06T23:28:33.572Z,100828.98
2018-09-06T23:31:02.450Z,100830.57
2018-09-06T23:33:42.307Z,100831.95
2018-09-06T23:36:11.196Z,100824.86
2018-09-06T23:38:40.078Z,100819.66
2018-09-06T23:41:08.980Z,100831.88
2018-09-06T23:43:37.889Z,100826.73
2018-09-06T23:46:08.872Z,100826.42
2018-09-06T23:48:37.882Z,100822.88
2018-09-06T23:51:06.784Z,100822.30
2018-09-06T23:53:42.933Z,100823.37
2018-09-06T23:56:11.842Z,100830.09
2018-09-06T23:58:40.706Z,100823.81
